Time;durP1;ratioP1;P1;durP2;ratioP2;P2;SDS_P1;SDS_P2;PMS_P1;PMS_P2;Temp;Humidity;BMP_temperature;BMP_pressure;BME280_temperature;BME280_humidity;BME280_pressure;Samples;Min_cycle;Max_cycle;Signal;HPM_P1;HPM_P2
2022/09/17 00:01:21;;;;;;;2.70;1.50;;;9.10;92.40;;;10.51;70.40;97301.63;5074568;28;20793;-85
2022/09/17 00:03:55;;;;;;;3.00;1.30;;;9.10;92.20;;;11.09;69.69;97379.44;5074447;28;20463;-85
2022/09/17 00:06:25;;;;;;;4.70;1.37;;;9.10;92.10;;;10.99;70.75;97377.31;5072951;28;20457;-85
2022/09/17 00:08:53;;;;;;;4.63;1.30;;;9.00;92.40;;;10.96;70.32;97369.69;5077326;28;20456;-87
2022/09/17 00:11:24;;;;;;;1.47;1.13;;;9.00;92.30;;;10.70;70.95;97378.00;5075190;28;20445;-86
2022/09/17 00:13:53;;;;;;;1.70;1.20;;;9.00;92.30;;;10.56;71.33;97365.75;5077292;28;20450;-83
2022/09/17 00:16:28;;;;;;;1.33;1.00;;;8.90;92.30;;;10.95;70.76;97360.75;5071964;28;20456;-88
2022/09/17 00:18:58;;;;;;;3.07;1.50;;;9.00;92.60;;;10.91;70.83;97382.00;5069461;28;20507;-88
2022/09/17 00:21:27;;;;;;;1.63;1.00;;;8.90;92.60;;;10.39;72.26;97360.16;5075464;28;20426;-87
2022/09/17 00:23:59;;;;;;;1.83;1.40;;;8.90;92.50;;;10.38;72.47;97372.81;5079471;28;20481;-76
2022/09/17 00:26:28;;;;;;;2.30;1.10;;;8.80;92.70;;;10.58;71.97;97361.75;5081576;28;20481;-85
2022/09/17 00:28:57;;;;;;;1.80;1.40;;;8.80;92.90;;;10.61;71.52;97366.72;5060815;28;20481;-84
2022/09/17 00:31:26;;;;;;;1.33;1.23;;;8.80;93.00;;;10.37;72.35;97373.88;5063240;28;20459;-79
2022/09/17 00:33:53;;;;;;;1.87;1.63;;;8.80;93.10;;;10.39;72.42;97379.06;5059504;28;20475;-84
2022/09/17 00:36:23;;;;;;;2.27;1.43;;;8.80;93.20;;;10.48;71.85;97367.72;5062742;28;20451;-83
2022/09/17 00:38:51;;;;;;;2.93;1.50;;;8.70;93.30;;;10.53;71.95;97374.28;5082873;28;20496;-83
2022/09/17 00:41:18;;;;;;;2.27;1.70;;;8.70;93.20;;;10.69;71.02;97357.44;5061936;28;20503;-83
2022/09/17 00:43:50;;;;;;;2.07;1.73;;;8.70;93.40;;;10.17;71.75;97328.28;5074442;28;20903;-87
2022/09/17 00:46:31;;;;;;;3.00;1.80;;;8.70;93.50;;;10.26;72.45;97374.69;5060558;28;20461;-85
2022/09/17 00:49:04;;;;;;;2.23;1.80;;;8.60;93.90;;;10.30;72.59;97381.25;5087161;28;20522;-85
2022/09/17 00:51:37;;;;;;;4.87;2.20;;;8.70;93.50;;;10.35;72.70;97374.13;5063409;28;20465;-83
2022/09/17 00:54:10;;;;;;;3.60;2.10;;;8.70;93.10;;;10.27;72.17;97357.41;5060418;28;20871;-81
2022/09/17 00:56:39;;;;;;;3.67;2.30;;;8.70;93.20;;;10.68;71.49;97363.88;5071318;28;20957;-80
2022/09/17 00:59:07;;;;;;;2.43;2.23;;;8.70;93.20;;;10.49;71.43;97374.75;5074779;28;20495;-84
2022/09/17 01:01:36;;;;;;;3.80;2.53;;;8.70;93.30;;;10.07;72.20;97350.41;5056416;28;20555;-85
2022/09/17 01:04:04;;;;;;;3.77;2.60;;;8.60;93.40;;;10.19;72.80;97386.38;5053831;28;20455;-78
2022/09/17 01:06:40;;;;;;;7.50;2.90;;;8.70;92.90;;;10.18;72.34;97390.13;5070584;28;20441;-81
2022/09/17 01:09:25;;;;;;;4.00;3.50;;;8.70;92.80;;;10.35;71.84;97373.28;5061775;28;20445;-85
2022/09/17 01:12:36;;;;;;;3.53;3.23;;;8.70;93.00;;;10.27;72.21;97381.72;5069015;28;20842;-84
2022/09/17 01:15:22;;;;;;;4.47;3.37;;;8.70;93.00;;;10.28;72.72;97386.06;5063824;28;20461;-86
2022/09/17 01:18:20;;;;;;;5.30;3.70;;;8.60;92.90;;;10.34;72.04;97394.06;5064193;28;20867;-87
2022/09/17 01:21:27;;;;;;;5.20;3.40;;;8.70;93.20;;;10.33;71.61;97360.03;5072922;28;20488;-83
2022/09/17 01:24:41;;;;;;;7.43;4.00;;;8.70;93.10;;;10.26;72.73;97401.66;5079638;28;20454;-81
2022/09/17 01:28:06;;;;;;;7.70;5.40;;;8.50;93.40;;;10.05;73.28;97395.69;5073731;28;20473;-83
2022/09/17 01:31:02;;;;;;;5.70;4.97;;;8.60;93.20;;;10.26;72.02;97407.06;5079857;28;20453;-85
2022/09/17 01:33:40;;;;;;;11.23;5.47;;;8.60;92.90;;;10.10;72.65;97403.94;5067925;28;20498;-87
2022/09/17 01:36:23;;;;;;;5.30;4.80;;;8.60;92.80;;;10.16;71.93;97391.41;5067008;28;20468;-85
2022/09/17 01:38:58;;;;;;;6.20;5.60;;;8.60;92.90;;;10.20;72.53;97404.22;5065041;28;20465;-86
2022/09/17 01:41:37;;;;;;;8.73;5.30;;;8.60;93.10;;;10.32;71.88;97389.94;5058367;28;21025;-85
2022/09/17 01:44:13;;;;;;;5.80;4.73;;;8.60;92.90;;;10.35;71.17;97406.53;5063113;28;20507;-80
2022/09/17 01:46:49;;;;;;;5.83;4.77;;;8.60;93.10;;;10.49;71.25;97407.19;5063414;28;20466;-87
2022/09/17 01:49:17;;;;;;;6.20;4.57;;;8.60;93.30;;;10.26;71.92;97388.19;5069831;28;20473;-87
2022/09/17 01:51:48;;;;;;;8.50;4.57;;;8.50;93.50;;;10.35;72.69;97411.91;5068730;28;20541;-87
2022/09/17 01:54:20;;;;;;;5.27;4.17;;;8.50;93.60;;;10.18;72.02;97379.31;5062329;28;20484;-81
2022/09/17 01:56:55;;;;;;;5.43;4.93;;;8.50;93.50;;;10.29;72.39;97406.59;5063099;28;20464;-83
2022/09/17 01:59:29;;;;;;;8.43;4.47;;;8.50;93.50;;;10.42;71.34;97406.47;5072630;28;21009;-83
2022/09/17 02:02:07;;;;;;;4.87;3.87;;;8.50;93.40;;;10.28;72.37;97411.16;5068025;28;20519;-85
2022/09/17 02:04:40;;;;;;;5.27;4.77;;;8.50;93.60;;;9.92;72.01;97392.09;5083519;28;20464;-83
2022/09/17 02:07:14;;;;;;;7.30;5.20;;;8.50;93.30;;;10.25;72.81;97416.22;5068307;28;20461;-85
2022/09/17 02:09:46;;;;;;;7.37;4.40;;;8.50;93.40;;;10.38;71.28;97417.91;5063463;28;20456;-86
2022/09/17 02:12:20;;;;;;;4.40;3.90;;;8.50;93.60;;;10.28;72.27;97410.38;5067845;28;20499;-83
2022/09/17 02:14:50;;;;;;;5.70;4.47;;;8.60;93.20;;;10.53;71.52;97428.31;5069814;28;20455;-86
2022/09/17 02:17:27;;;;;;;7.63;4.40;;;8.60;92.90;;;10.37;72.46;97411.69;5067521;28;20484;-83
2022/09/17 02:19:55;;;;;;;5.43;4.07;;;8.60;93.20;;;10.53;71.09;97412.94;5067042;28;20453;-84
2022/09/17 02:22:28;;;;;;;6.33;4.40;;;8.60;93.20;;;10.47;71.61;97414.69;5080693;28;20505;-79
2022/09/17 02:25:05;;;;;;;6.63;3.90;;;8.70;93.10;;;10.52;71.96;97421.28;5074796;28;20465;-79
2022/09/17 02:27:49;;;;;;;6.13;4.20;;;8.80;92.40;;;10.01;71.48;97345.94;5081293;28;20470;-82
2022/09/17 02:30:16;;;;;;;5.67;4.30;;;8.90;91.90;;;10.53;70.88;97398.59;5070213;28;20457;-85
2022/09/17 02:32:45;;;;;;;4.83;3.50;;;9.00;91.50;;;10.73;70.77;97418.06;5074284;28;20469;-86
2022/09/17 02:35:14;;;;;;;9.60;4.50;;;9.00;91.50;;;10.77;70.65;97394.13;5073815;28;20544;-85
2022/09/17 02:37:42;;;;;;;6.73;3.70;;;9.10;91.20;;;11.05;69.69;97396.13;5068066;28;20445;-82
2022/09/17 02:40:11;;;;;;;4.00;3.20;;;9.20;91.20;;;10.89;70.24;97399.53;5082532;28;20466;-79
2022/09/17 02:42:57;;;;;;;6.47;3.70;;;9.20;90.80;;;10.93;69.39;97411.50;5077443;28;20502;-78
2022/09/17 02:45:39;;;;;;;4.83;4.00;;;9.30;90.70;;;10.90;69.95;97401.97;5077740;28;20467;-83
2022/09/17 02:48:47;;;;;;;4.67;4.27;;;9.20;90.70;;;11.07;68.90;97390.50;5079235;28;20514;-84
2022/09/17 02:51:29;;;;;;;4.00;3.30;;;9.30;90.50;;;10.89;68.13;97326.56;5061671;28;20489;-87
2022/09/17 02:54:08;;;;;;;6.37;3.90;;;9.30;90.40;;;11.18;68.52;97391.56;5065540;28;20475;-82
2022/09/17 02:56:45;;;;;;;8.10;5.10;;;9.30;90.20;;;11.20;68.35;97387.56;5088871;28;20457;-84
2022/09/17 02:59:20;;;;;;;6.20;4.00;;;9.40;90.10;;;11.22;68.43;97391.91;5061156;28;20575;-85
2022/09/17 03:01:55;;;;;;;3.50;3.20;;;9.40;89.70;;;11.14;68.36;97390.38;5064520;28;20515;-86
2022/09/17 03:04:27;;;;;;;6.57;3.90;;;9.40;89.20;;;11.30;67.66;97384.28;5073959;28;20857;-86
2022/09/17 03:06:58;;;;;;;7.63;3.60;;;9.40;89.00;;;11.20;68.46;97378.63;5073679;28;20478;-86
2022/09/17 03:09:25;;;;;;;5.17;3.63;;;9.40;88.30;;;11.10;68.57;97378.38;5071784;28;20495;-86
2022/09/17 03:11:53;;;;;;;6.27;3.90;;;9.30;89.10;;;10.95;69.04;97381.56;5074084;28;20452;-86
2022/09/17 03:14:20;;;;;;;5.00;3.87;;;9.30;88.60;;;10.93;68.53;97368.28;5073336;28;20473;-82
2022/09/17 03:16:48;;;;;;;4.87;4.37;;;9.30;88.40;;;11.17;68.12;97368.28;5072639;28;20472;-88
2022/09/17 03:19:15;;;;;;;9.20;5.20;;;9.30;88.80;;;10.91;68.32;97354.97;5074455;28;20462;-86
2022/09/17 03:21:44;;;;;;;4.53;3.93;;;9.40;88.00;;;11.25;67.31;97375.22;5064956;28;20595;-81
2022/09/17 03:24:11;;;;;;;4.23;3.90;;;9.40;88.10;;;11.22;67.19;97375.69;5065688;28;20479;-81
2022/09/17 03:26:39;;;;;;;4.90;4.40;;;9.40;87.10;;;11.15;67.82;97359.59;5074212;28;20455;-83
2022/09/17 03:29:06;;;;;;;5.40;4.33;;;9.40;87.50;;;11.09;67.01;97365.94;5070572;28;20489;-87
2022/09/17 03:31:33;;;;;;;8.90;3.57;;;9.40;86.50;;;11.26;67.05;97366.88;5073675;28;20449;-79
2022/09/17 03:34:01;;;;;;;7.40;4.37;;;9.40;86.60;;;11.19;66.74;97366.97;5079804;28;20472;-78
2022/09/17 03:36:28;;;;;;;5.50;3.70;;;9.40;86.20;;;11.24;66.33;97363.56;5086089;28;20465;-78
2022/09/17 03:38:57;;;;;;;7.57;4.80;;;9.50;85.80;;;11.38;66.17;97366.03;5086398;28;20489;-80
2022/09/17 03:41:25;;;;;;;5.80;3.83;;;9.40;86.20;;;11.59;65.97;97365.41;5083929;28;20436;-79
2022/09/17 03:43:53;;;;;;;7.37;3.80;;;9.50;85.80;;;11.44;65.60;97329.91;5074945;28;20465;-83
2022/09/17 03:46:21;;;;;;;3.60;3.30;;;9.60;85.60;;;11.53;65.47;97360.16;5063913;28;20457;-82
2022/09/17 03:48:48;;;;;;;4.57;3.33;;;9.60;85.70;;;11.40;65.84;97359.34;5070107;28;20553;-83
2022/09/17 03:51:15;;;;;;;5.93;4.30;;;9.60;85.00;;;11.33;65.52;97327.00;5062619;28;20458;-78
2022/09/17 03:53:42;;;;;;;6.17;4.07;;;9.60;85.40;;;11.47;65.90;97361.94;5068311;28;20544;-84
2022/09/17 03:56:11;;;;;;;7.50;3.23;;;9.60;85.30;;;11.44;65.59;97362.38;5061182;28;20463;-78
2022/09/17 03:58:38;;;;;;;6.57;4.07;;;9.60;85.30;;;11.22;66.89;97364.84;5073865;28;20493;-82
2022/09/17 04:01:06;;;;;;;4.73;3.63;;;9.60;85.30;;;11.34;66.07;97363.81;5082430;28;21006;-83
2022/09/17 04:03:34;;;;;;;7.10;3.30;;;9.50;85.40;;;11.22;66.78;97365.69;5091467;28;20493;-80
2022/09/17 04:06:01;;;;;;;4.20;3.30;;;9.50;85.50;;;11.22;66.35;97368.41;5070435;28;20869;-76
2022/09/17 04:08:28;;;;;;;7.43;3.50;;;9.50;85.40;;;11.34;66.44;97353.00;5087727;28;20895;-77
2022/09/17 04:10:55;;;;;;;7.60;3.00;;;9.60;85.60;;;11.79;65.32;97366.91;5070493;28;20448;-76
2022/09/17 04:13:24;;;;;;;6.13;3.00;;;9.60;85.60;;;11.33;66.06;97356.75;5072127;28;20542;-78
2022/09/17 04:15:51;;;;;;;9.60;3.60;;;9.60;85.10;;;11.42;66.00;97362.63;5066337;28;20453;-77
2022/09/17 04:18:18;;;;;;;5.23;2.70;;;9.60;85.30;;;11.47;65.89;97368.13;5067722;28;20829;-76
2022/09/17 04:20:45;;;;;;;4.83;2.80;;;9.70;85.40;;;11.08;65.92;97304.81;5068400;28;20516;-76
2022/09/17 04:23:13;;;;;;;3.87;2.60;;;9.70;85.10;;;11.45;65.75;97348.63;5071686;28;20491;-76
2022/09/17 04:25:40;;;;;;;4.23;2.83;;;9.70;85.10;;;11.37;65.74;97356.28;5067677;28;20993;-76
2022/09/17 04:28:08;;;;;;;6.30;2.80;;;9.70;85.10;;;11.17;67.21;97349.38;5071609;28;20497;-77
2022/09/17 04:30:36;;;;;;;5.77;2.57;;;9.60;85.20;;;11.32;66.41;97352.41;5068193;28;20496;-75
2022/09/17 04:33:04;;;;;;;6.43;2.97;;;9.60;85.50;;;11.31;66.87;97353.47;5064932;28;20466;-76
2022/09/17 04:35:31;;;;;;;4.97;2.83;;;9.50;85.50;;;11.30;66.12;97346.44;5065955;28;20481;-76
2022/09/17 04:37:59;;;;;;;3.70;2.47;;;9.60;85.30;;;11.59;65.39;97343.75;5061456;28;20595;-77
2022/09/17 04:40:27;;;;;;;5.73;3.20;;;9.60;85.30;;;11.64;65.69;97343.06;5067211;28;20520;-77
2022/09/17 04:42:58;;;;;;;4.10;2.70;;;9.70;85.50;;;11.66;65.60;97338.22;5062817;28;20457;-76
2022/09/17 04:45:26;;;;;;;3.47;3.17;;;9.70;85.40;;;11.49;65.67;97348.97;5060541;28;20447;-75
2022/09/17 04:47:54;;;;;;;5.90;3.07;;;9.70;85.10;;;11.31;66.61;97347.22;5067813;28;20494;-75
2022/09/17 04:50:23;;;;;;;5.93;2.77;;;9.60;85.30;;;11.07;67.27;97341.84;5060179;28;20448;-76
2022/09/17 04:52:50;;;;;;;3.23;2.97;;;9.50;85.70;;;11.17;67.19;97346.66;5064696;28;20532;-76
2022/09/17 04:55:17;;;;;;;5.47;3.00;;;9.50;85.80;;;11.27;66.73;97349.56;5065232;28;21055;-76
2022/09/17 04:57:47;;;;;;;7.83;2.90;;;9.50;86.30;;;11.40;66.53;97339.56;5067030;28;20540;-76
2022/09/17 05:00:16;;;;;;;4.03;3.23;;;9.50;86.80;;;11.30;67.18;97356.41;5062993;28;20649;-76
2022/09/17 05:02:46;;;;;;;5.03;2.93;;;9.50;86.30;;;11.50;66.73;97360.59;5059721;28;20471;-76
2022/09/17 05:05:17;;;;;;;3.10;2.20;;;9.50;86.90;;;11.21;67.04;97358.66;5063284;28;20463;-76
2022/09/17 05:07:44;;;;;;;6.70;3.00;;;9.50;86.30;;;10.97;68.00;97361.34;5064719;28;20479;-77
2022/09/17 05:10:13;;;;;;;6.87;2.80;;;9.40;86.40;;;10.99;68.08;97364.63;5063986;28;20538;-77
2022/09/17 05:12:41;;;;;;;3.63;2.57;;;9.40;86.70;;;11.47;66.57;97372.75;5069546;28;20476;-77
2022/09/17 05:15:08;;;;;;;6.93;3.30;;;9.50;86.90;;;11.01;68.22;97376.03;5084609;28;20519;-77
2022/09/17 05:17:35;;;;;;;6.17;2.90;;;9.40;86.40;;;11.24;67.23;97376.28;5065538;28;20531;-76
2022/09/17 05:20:03;;;;;;;2.40;2.00;;;9.50;86.90;;;11.11;67.58;97374.63;5069840;28;20460;-75
2022/09/17 05:22:32;;;;;;;4.27;2.60;;;9.40;87.10;;;11.08;68.05;97372.41;5072158;28;20450;-75
2022/09/17 05:24:59;;;;;;;6.03;2.60;;;9.40;86.80;;;10.94;67.38;97380.72;5070082;28;20512;-77
2022/09/17 05:27:26;;;;;;;5.17;2.70;;;9.40;86.50;;;11.11;67.43;97380.03;5068359;28;20491;-76
2022/09/17 05:29:53;;;;;;;7.87;2.60;;;9.40;86.60;;;10.88;68.52;97381.66;5068386;28;21124;-75
2022/09/17 05:32:20;;;;;;;6.27;2.50;;;9.40;86.80;;;11.13;67.36;97376.03;5067497;28;20498;-77
2022/09/17 05:34:49;;;;;;;4.10;2.50;;;9.50;86.40;;;11.18;67.21;97361.81;5066629;28;20506;-76
2022/09/17 05:37:16;;;;;;;2.93;2.40;;;9.50;86.40;;;10.75;69.60;97390.78;5068436;28;20462;-75
2022/09/17 05:39:45;;;;;;;5.50;3.37;;;9.40;88.00;;;10.83;70.58;97379.66;5069322;28;20450;-77
2022/09/17 05:42:13;;;;;;;3.77;3.03;;;9.30;90.90;;;10.43;72.45;97386.50;5063330;28;20525;-75
2022/09/17 05:44:40;;;;;;;4.33;2.70;;;9.10;92.00;;;10.37;73.07;97390.06;5067028;28;20818;-76
2022/09/17 05:47:08;;;;;;;6.40;2.60;;;9.00;93.20;;;10.15;74.26;97374.38;5067432;28;20450;-76
2022/09/17 05:49:36;;;;;;;3.80;3.00;;;8.90;94.00;;;10.15;74.98;97395.97;5066765;28;20465;-76
2022/09/17 05:52:03;;;;;;;2.60;2.30;;;8.70;95.40;;;10.02;75.51;97390.75;5068671;28;20450;-76
2022/09/17 05:54:30;;;;;;;2.90;1.97;;;8.70;95.70;;;10.09;75.23;97399.59;5085410;28;20475;-76
2022/09/17 05:57:00;;;;;;;3.10;2.33;;;8.60;95.40;;;10.01;74.36;97400.75;5070115;28;20504;-75
2022/09/17 05:59:27;;;;;;;3.40;1.90;;;8.60;95.30;;;10.04;74.85;97405.69;5074953;28;20472;-75
2022/09/17 06:01:54;;;;;;;3.53;1.97;;;8.60;96.00;;;9.88;75.32;97406.31;5065774;28;20949;-75
2022/09/17 06:04:21;;;;;;;2.17;1.60;;;8.50;95.70;;;10.07;75.42;97407.91;5066684;28;20452;-75
2022/09/17 06:06:49;;;;;;;3.73;2.07;;;8.50;97.00;;;10.20;75.36;97409.63;5065730;28;20468;-76
2022/09/17 06:09:16;;;;;;;2.70;1.87;;;8.50;97.30;;;10.20;74.86;97396.13;5056951;28;20490;-76
2022/09/17 06:11:43;;;;;;;3.10;1.90;;;8.60;98.40;;;10.52;74.59;97415.88;5066329;28;20497;-77
2022/09/17 06:14:12;;;;;;;3.93;2.00;;;8.60;99.10;;;10.43;74.12;97407.28;5068343;28;20472;-75
2022/09/17 06:16:39;;;;;;;3.00;1.80;;;8.60;97.40;;;10.50;74.05;97413.41;5067883;28;20519;-77
2022/09/17 06:19:06;;;;;;;2.63;1.53;;;8.60;96.90;;;10.52;73.52;97410.47;5059098;28;20623;-76
2022/09/17 06:21:33;;;;;;;1.57;1.47;;;8.70;95.10;;;10.56;74.02;97406.28;5057031;28;20571;-84
2022/09/17 06:24:01;;;;;;;3.30;2.40;;;8.80;96.70;;;10.85;74.02;97406.47;5061743;28;20547;-74
2022/09/17 06:26:29;;;;;;;1.87;1.60;;;8.80;96.80;;;11.00;73.02;97400.59;5058369;28;20988;-82
2022/09/17 06:28:56;;;;;;;3.03;2.33;;;9.00;96.90;;;11.14;72.98;97395.78;5063319;28;20460;-84
2022/09/17 06:31:24;;;;;;;1.93;1.60;;;9.00;97.40;;;11.05;72.70;97406.13;5066331;28;20466;-77
2022/09/17 06:33:51;;;;;;;1.20;1.00;;;9.10;96.20;;;10.66;72.69;97411.09;5067267;28;20481;-79
2022/09/17 06:36:18;;;;;;;1.73;1.47;;;9.00;93.90;;;10.72;73.76;97413.72;5061272;28;20511;-76
2022/09/17 06:38:46;;;;;;;3.27;1.80;;;8.90;94.50;;;10.49;74.49;97412.56;5058538;28;20485;-76
2022/09/17 06:41:15;;;;;;;3.73;1.90;;;8.90;95.30;;;10.75;73.68;97409.72;5063940;28;20548;-75
2022/09/17 06:43:42;;;;;;;3.27;2.10;;;8.90;95.90;;;10.60;72.67;97423.66;5065080;28;21125;-77
2022/09/17 06:46:11;;;;;;;3.10;2.40;;;8.90;94.20;;;10.66;73.42;97422.72;5057297;28;20545;-72
2022/09/17 06:48:39;;;;;;;2.63;2.03;;;8.90;95.30;;;10.90;73.24;97417.38;5067538;28;20969;-70
2022/09/17 06:51:09;;;;;;;4.90;2.50;;;9.00;96.50;;;10.62;74.05;97426.94;5079045;28;20480;-73
2022/09/17 06:53:37;;;;;;;2.20;1.90;;;8.90;96.10;;;10.63;74.33;97434.00;5060397;28;20550;-80
2022/09/17 06:56:07;;;;;;;3.37;2.10;;;8.90;96.20;;;10.38;74.80;97409.81;5060919;28;20878;-80
2022/09/17 06:58:36;;;;;;;2.47;1.60;;;8.90;96.50;;;10.25;74.94;97421.63;5074945;28;20459;-83
2022/09/17 07:01:05;;;;;;;2.93;1.73;;;8.80;96.00;;;10.42;75.54;97438.88;5058763;28;20453;-72
2022/09/17 07:03:34;;;;;;;2.50;2.00;;;8.80;98.80;;;10.33;75.83;97434.78;5061864;28;20544;-81
2022/09/17 07:06:03;;;;;;;2.97;1.90;;;8.80;97.60;;;10.24;75.68;97428.09;5062228;28;20553;-78
2022/09/17 07:08:33;;;;;;;3.20;1.60;;;8.80;98.10;;;10.27;76.57;97443.81;5058821;28;20543;-77
2022/09/17 07:11:00;;;;;;;2.87;1.67;;;8.80;99.20;;;10.58;76.39;97441.97;5062480;28;20448;-79
2022/09/17 07:13:28;;;;;;;5.00;2.00;;;8.90;99.90;;;10.49;76.18;97442.28;5064740;28;20458;-78
2022/09/17 07:15:56;;;;;;;2.30;2.00;;;8.90;99.90;;;10.54;76.71;97451.56;5062945;28;20549;-77
2022/09/17 07:18:24;;;;;;;1.83;1.73;;;8.90;99.30;;;10.49;77.05;97450.38;5061279;28;20458;-77
2022/09/17 07:20:56;;;;;;;2.60;2.40;;;9.00;99.30;;;10.57;76.84;97448.44;5064885;28;20458;-78
2022/09/17 07:23:27;;;;;;;4.07;2.70;;;9.00;99.90;;;10.48;76.76;97464.94;5063139;28;21131;-78
2022/09/17 07:25:56;;;;;;;2.93;2.63;;;9.00;99.90;;;10.63;76.88;97455.59;5071417;28;20470;-79
2022/09/17 07:28:24;;;;;;;4.00;3.13;;;9.00;99.90;;;10.57;77.05;97451.13;5063805;28;20454;-78
2022/09/17 07:30:52;;;;;;;5.10;3.40;;;9.00;99.90;;;10.73;76.50;97453.19;5041456;28;20507;-77
2022/09/17 07:33:23;;;;;;;4.80;3.20;;;9.00;99.90;;;10.41;77.37;97458.81;5060548;28;20794;-77
2022/09/17 07:35:54;;;;;;;4.73;3.03;;;9.00;99.90;;;10.79;76.70;97464.97;5076346;28;20482;-78
2022/09/17 07:38:22;;;;;;;4.97;3.07;;;9.00;99.90;;;10.84;77.77;97470.47;5077378;28;20510;-77
2022/09/17 07:41:00;;;;;;;5.40;3.47;;;9.10;99.90;;;10.72;76.98;97473.16;5060141;28;20462;-78
2022/09/17 07:43:29;;;;;;;4.90;3.30;;;9.10;99.90;;;10.81;76.40;97480.91;5051536;28;20465;-77
2022/09/17 07:45:58;;;;;;;4.83;3.20;;;9.20;99.90;;;10.88;76.79;97487.06;5057047;28;20475;-78
2022/09/17 07:48:27;;;;;;;5.97;3.20;;;9.20;99.90;;;10.65;77.00;97488.63;5060195;28;20452;-78
2022/09/17 07:50:54;;;;;;;7.20;3.27;;;9.20;99.90;;;10.58;76.95;97488.72;5057077;28;20456;-77
2022/09/17 07:53:22;;;;;;;3.70;3.33;;;9.10;99.00;;;10.73;76.38;97488.31;5059246;28;20546;-76
2022/09/17 07:55:53;;;;;;;3.70;3.10;;;9.10;99.70;;;10.90;76.73;97491.16;5056934;28;20483;-76
2022/09/17 07:58:23;;;;;;;6.80;4.00;;;9.20;99.90;;;10.82;76.07;97487.97;5060388;28;20476;-76
2022/09/17 08:00:50;;;;;;;4.10;3.70;;;9.20;97.70;;;10.86;75.65;97495.38;5058025;28;20528;-75
2022/09/17 08:03:18;;;;;;;4.83;3.80;;;9.30;98.60;;;10.51;76.52;97500.66;5065204;28;20464;-75
2022/09/17 08:05:46;;;;;;;4.50;3.93;;;9.20;97.00;;;10.81;75.87;97506.09;5053928;28;20518;-75
2022/09/17 08:08:13;;;;;;;8.20;4.20;;;9.20;98.90;;;11.08;76.06;97496.75;5074587;28;20961;-77
2022/09/17 08:10:41;;;;;;;7.50;4.33;;;9.30;99.30;;;10.83;75.86;97516.63;5061753;28;20453;-75
2022/09/17 08:13:08;;;;;;;10.43;3.90;;;9.30;97.20;;;10.90;75.71;97509.28;5058871;28;20545;-76
2022/09/17 08:15:37;;;;;;;7.47;4.80;;;9.30;97.90;;;11.03;76.20;97514.50;5064983;28;20475;-76
2022/09/17 08:18:05;;;;;;;4.83;4.37;;;9.40;99.40;;;11.14;75.29;97512.88;5070145;28;20444;-77
2022/09/17 08:20:32;;;;;;;9.37;4.37;;;9.40;97.20;;;11.08;75.36;97510.25;5074164;28;20458;-76
2022/09/17 08:23:00;;;;;;;4.80;4.27;;;9.40;97.50;;;11.17;75.42;97511.59;5069195;28;21357;-76
2022/09/17 08:25:27;;;;;;;6.40;5.07;;;9.50;97.10;;;11.66;74.21;97507.88;5053310;28;20886;-77
2022/09/17 08:27:55;;;;;;;6.30;4.70;;;9.60;97.70;;;11.13;74.24;97504.97;5050886;28;20457;-78
2022/09/17 08:30:23;;;;;;;6.47;4.47;;;9.60;95.60;;;11.08;75.27;97521.06;5050547;28;20458;-77
2022/09/17 08:32:52;;;;;;;5.20;4.70;;;9.60;95.30;;;11.60;73.84;97513.19;5060199;28;20486;-76
2022/09/17 08:35:19;;;;;;;7.40;4.67;;;9.60;96.30;;;11.34;73.87;97509.03;5047640;28;20927;-76
2022/09/17 08:37:46;;;;;;;6.37;4.40;;;9.70;95.40;;;11.39;73.87;97516.44;5058660;28;20466;-77
2022/09/17 08:40:21;;;;;;;5.93;3.50;;;9.70;94.40;;;11.28;73.82;97521.59;5054302;28;20493;-77
2022/09/17 08:42:58;;;;;;;4.30;3.90;;;9.70;94.70;;;11.61;73.87;97514.00;5057990;28;21037;-77
2022/09/17 08:45:25;;;;;;;10.80;4.77;;;9.80;95.20;;;11.93;72.29;97515.53;5059625;28;20511;-76
2022/09/17 08:47:56;;;;;;;5.30;4.27;;;9.90;94.60;;;11.68;72.23;97530.13;5058252;28;20858;-77
2022/09/17 08:50:30;;;;;;;7.40;4.30;;;10.00;92.50;;;11.58;72.00;97526.09;5054667;28;20455;-75
2022/09/17 08:53:34;;;;;;;9.23;4.37;;;10.00;92.40;;;11.84;71.56;97524.00;5056027;28;20456;-74
2022/09/17 08:56:08;;;;;;;5.33;3.77;;;10.00;93.10;;;11.76;71.43;97536.00;5071741;28;20903;-74
2022/09/17 08:58:49;;;;;;;5.50;3.53;;;10.10;92.00;;;12.09;70.16;97536.50;5057803;28;20454;-76
2022/09/17 09:01:27;;;;;;;3.57;3.27;;;10.20;91.20;;;11.99;70.71;97503.75;5043231;28;20457;-75
2022/09/17 09:04:44;;;;;;;4.37;3.73;;;10.40;91.30;;;12.96;67.98;97533.88;5058487;28;20554;-73
2022/09/17 09:07:16;;;;;;;6.03;2.97;;;10.70;90.50;;;12.81;67.51;97536.31;5043287;28;20448;-77
2022/09/17 09:09:48;;;;;;;8.03;3.60;;;11.00;87.20;;;12.79;66.85;97533.84;5051519;28;20456;-78
2022/09/17 09:12:23;;;;;;;6.70;3.10;;;11.10;85.70;;;13.57;65.52;97536.06;5057826;28;20454;-78
2022/09/17 09:14:58;;;;;;;3.53;3.13;;;11.50;86.50;;;13.73;64.63;97536.31;5057684;28;20575;-79
2022/09/17 09:17:32;;;;;;;7.73;3.10;;;11.80;84.90;;;13.28;64.25;97537.97;5061451;28;20937;-77
2022/09/17 09:20:02;;;;;;;3.70;3.23;;;11.70;82.90;;;13.15;63.80;97534.50;5060008;28;20472;-78
2022/09/17 09:22:46;;;;;;;4.53;2.97;;;11.60;82.30;;;13.62;63.99;97534.50;5054130;28;20462;-78
2022/09/17 09:25:22;;;;;;;5.20;3.30;;;11.70;83.20;;;13.94;62.87;97537.41;5060582;28;20463;-77
2022/09/17 09:28:06;;;;;;;7.03;3.10;;;12.00;82.40;;;13.76;62.67;97535.81;5062793;28;20464;-78
2022/09/17 09:30:52;;;;;;;4.83;2.83;;;12.00;81.90;;;13.78;63.41;97533.66;5058862;28;21082;-78
2022/09/17 09:33:27;;;;;;;7.40;3.03;;;11.90;82.60;;;13.50;64.20;97540.81;5064418;28;20524;-78
2022/09/17 09:35:56;;;;;;;8.50;3.33;;;11.80;82.10;;;13.86;62.53;97527.00;5060475;28;20470;-78
2022/09/17 09:38:32;;;;;;;6.00;3.23;;;11.90;82.30;;;13.43;62.43;97524.72;5062696;28;20456;-79
2022/09/17 09:41:07;;;;;;;9.07;3.30;;;11.90;81.20;;;14.09;62.65;97528.69;5059809;28;20564;-79
2022/09/17 09:43:41;;;;;;;6.70;3.00;;;12.00;82.30;;;14.09;61.77;97534.13;5080081;28;20445;-79
2022/09/17 09:47:11;;;;;;;7.43;3.13;;;12.20;81.60;;;13.69;62.32;97535.16;5076640;28;20569;-84
2022/09/17 09:49:53;;;;;;;4.40;2.90;;;12.10;80.80;;;13.90;61.63;97538.19;5040587;28;20585;-77
2022/09/17 09:52:42;;;;;;;5.43;2.97;;;12.20;80.90;;;13.84;61.68;97540.00;5058712;28;20471;-78
2022/09/17 09:55:31;;;;;;;5.40;3.40;;;12.20;80.40;;;14.47;61.26;97533.50;5061820;28;20476;-79
2022/09/17 09:58:06;;;;;;;10.70;2.80;;;12.40;81.50;;;14.34;61.09;97534.72;5064792;28;20491;-75
2022/09/17 10:00:38;;;;;;;6.40;2.90;;;12.50;80.60;;;14.27;60.95;97545.75;5057392;28;20466;-77
2022/09/17 10:03:16;;;;;;;3.40;2.67;;;12.60;80.20;;;13.96;60.89;97534.47;5062679;28;20931;-75
2022/09/17 10:05:54;;;;;;;8.83;3.40;;;12.40;79.60;;;13.46;62.21;97539.69;5063624;28;20577;-76
2022/09/17 10:08:24;;;;;;;7.17;3.00;;;12.10;79.60;;;13.73;61.12;97537.13;5064365;28;20459;-78
2022/09/17 10:10:57;;;;;;;5.07;3.10;;;12.30;80.30;;;14.16;60.63;97534.75;5067629;28;20954;-79
2022/09/17 10:13:26;;;;;;;4.20;3.33;;;12.50;80.10;;;13.91;60.99;97537.94;5070493;28;20554;-72
2022/09/17 10:15:53;;;;;;;6.67;3.40;;;12.40;79.50;;;14.01;61.81;97538.09;5065675;28;21028;-77
2022/09/17 10:18:23;;;;;;;9.03;3.13;;;12.30;80.40;;;14.05;60.13;97529.44;5064039;28;20544;-78
2022/09/17 10:20:56;;;;;;;3.17;2.60;;;12.50;79.00;;;13.99;60.86;97523.09;5066548;28;20459;-80
2022/09/17 10:23:28;;;;;;;5.47;3.00;;;12.40;79.50;;;14.06;60.34;97537.34;5085071;28;20453;-76
2022/09/17 10:25:56;;;;;;;9.80;3.27;;;12.50;79.10;;;14.87;58.30;97532.38;5063800;28;20554;-78
2022/09/17 10:28:35;;;;;;;4.73;2.60;;;12.80;79.10;;;14.64;57.67;97526.13;5060658;28;20487;-83
2022/09/17 10:31:09;;;;;;;5.73;2.40;;;13.10;77.30;;;14.36;58.10;97530.69;5059862;28;20544;-79
2022/09/17 10:33:40;;;;;;;6.40;3.13;;;12.80;77.00;;;14.28;58.80;97525.66;5063844;28;20454;-79
2022/09/17 10:36:12;;;;;;;6.07;2.70;;;12.60;78.10;;;14.41;58.18;97514.44;5064366;28;20503;-79
2022/09/17 10:38:42;;;;;;;6.97;2.60;;;12.70;77.60;;;14.17;56.25;97460.31;5061869;28;20478;-78
2022/09/17 10:41:13;;;;;;;5.90;2.73;;;12.90;76.20;;;15.09;54.94;97526.06;5066813;28;20470;-77
2022/09/17 10:43:41;;;;;;;3.90;2.67;;;13.20;75.90;;;15.08;55.25;97510.81;5066091;28;20454;-78
2022/09/17 10:46:13;;;;;;;4.53;2.63;;;13.50;75.30;;;14.95;54.16;97493.88;5058258;28;20527;-79